createdAt,value
2023-10-26T00:01:20.940Z,42.92
2023-10-26T00:03:23.751Z,42.03
2023-10-26T00:05:26.882Z,34.67
2023-10-26T00:07:29.937Z,39.20
2023-10-26T00:09:32.652Z,33.00
2023-10-26T00:11:35.378Z,37.60
2023-10-26T00:13:39.589Z,39.22
2023-10-26T00:15:42.169Z,34.65
2023-10-26T00:17:45.401Z,32.10
2023-10-26T00:19:48.160Z,30.55
2023-10-26T00:21:52.997Z,40.13
2023-10-26T00:23:55.585Z,34.75
2023-10-26T00:25:58.742Z,35.70
2023-10-26T00:28:01.436Z,35.70
2023-10-26T00:30:07.419Z,36.63
2023-10-26T00:32:10.405Z,33.67
2023-10-26T00:34:13.967Z,30.58
2023-10-26T00:36:16.539Z,30.33
2023-10-26T00:38:19.267Z,36.60
2023-10-26T00:40:22.028Z,35.30
2023-10-26T00:42:29.277Z,31.35
2023-10-26T00:44:33.080Z,41.63
2023-10-26T00:46:37.727Z,36.03
2023-10-26T00:48:41.590Z,32.30
2023-10-26T00:50:45.635Z,29.00
2023-10-26T00:52:49.851Z,27.88
2023-10-26T00:54:54.159Z,28.10
2023-10-26T00:56:58.608Z,29.13
2023-10-26T00:59:01.512Z,33.42
2023-10-26T01:01:04.394Z,34.72
2023-10-26T01:03:08.588Z,36.45
2023-10-26T01:05:11.232Z,34.63
2023-10-26T01:07:13.874Z,38.03
2023-10-26T01:09:17.326Z,33.95
2023-10-26T01:11:20.920Z,26.52
2023-10-26T01:13:23.949Z,26.77
2023-10-26T01:15:26.752Z,32.72
2023-10-26T01:17:29.659Z,26.38
2023-10-26T01:19:41.076Z,31.90
2023-10-26T01:21:51.848Z,32.58
2023-10-26T01:23:56.155Z,33.10
2023-10-26T01:25:59.945Z,32.80
2023-10-26T01:28:02.850Z,27.33
2023-10-26T01:30:06.964Z,24.38
2023-10-26T01:32:10.627Z,27.13
2023-10-26T01:34:13.246Z,28.90
2023-10-26T01:36:16.102Z,28.00
2023-10-26T01:38:20.181Z,30.92
2023-10-26T01:40:22.977Z,31.00
2023-10-26T01:42:25.596Z,33.90
2023-10-26T01:44:28.295Z,25.98
2023-10-26T01:46:31.187Z,27.30
2023-10-26T01:48:34.020Z,25.50
2023-10-26T01:50:37.221Z,25.85
2023-10-26T01:52:41.279Z,34.53
2023-10-26T01:54:45.555Z,22.73
2023-10-26T01:56:48.485Z,31.15
2023-10-26T01:58:51.277Z,25.60
2023-10-26T02:00:54.011Z,23.40
2023-10-26T02:02:57.475Z,28.08
2023-10-26T02:05:00.549Z,25.80
2023-10-26T02:07:03.278Z,27.83
2023-10-26T02:09:06.168Z,27.15
2023-10-26T02:11:10.210Z,27.92
2023-10-26T02:13:13.019Z,26.25
2023-10-26T02:15:15.925Z,32.92
2023-10-26T02:17:18.859Z,29.83
2023-10-26T02:19:22.835Z,30.95
2023-10-26T02:21:25.774Z,27.50
2023-10-26T02:23:29.425Z,25.48
2023-10-26T02:25:32.502Z,25.15
2023-10-26T02:27:37.154Z,24.70
2023-10-26T02:29:40.397Z,24.58
2023-10-26T02:31:43.402Z,25.52
2023-10-26T02:33:46.299Z,28.63
2023-10-26T02:35:49.142Z,26.05
2023-10-26T02:37:52.124Z,25.13
2023-10-26T02:39:56.240Z,27.75
2023-10-26T02:41:59.399Z,23.58
2023-10-26T02:44:04.361Z,25.45
2023-10-26T02:46:07.382Z,25.83
2023-10-26T02:48:10.295Z,32.30
2023-10-26T02:50:13.500Z,30.52
2023-10-26T02:52:16.420Z,25.67
2023-10-26T02:54:19.426Z,27.52
2023-10-26T02:56:22.381Z,27.50
2023-10-26T02:58:26.044Z,22.27
2023-10-26T03:00:30.677Z,23.85
2023-10-26T03:02:34.086Z,31.33
2023-10-26T03:04:39.050Z,29.95
2023-10-26T03:06:42.749Z,27.92
2023-10-26T03:08:45.652Z,24.10
2023-10-26T03:10:48.848Z,29.77
2023-10-26T03:12:51.839Z,30.50
2023-10-26T03:14:54.774Z,24.83
2023-10-26T03:16:59.686Z,29.90
2023-10-26T03:19:02.625Z,31.52
2023-10-26T03:21:06.064Z,26.90
2023-10-26T03:23:09.036Z,24.38
2023-10-26T03:25:15.437Z,24.92
2023-10-26T03:27:18.976Z,23.85
2023-10-26T03:29:22.881Z,25.40
2023-10-26T03:31:25.896Z,21.70
2023-10-26T03:33:30.300Z,29.38
2023-10-26T03:35:36.803Z,26.98
2023-10-26T03:37:39.760Z,24.58
2023-10-26T03:39:42.803Z,24.30
2023-10-26T03:41:45.842Z,22.48
2023-10-26T03:43:48.928Z,32.13
2023-10-26T03:45:51.871Z,25.83
2023-10-26T03:47:55.095Z,23.50
2023-10-26T03:49:59.512Z,19.98
2023-10-26T03:52:02.729Z,20.42
2023-10-26T03:54:05.947Z,23.52
2023-10-26T03:56:09.670Z,24.83
2023-10-26T03:58:13.985Z,23.92
2023-10-26T04:00:18.177Z,19.35
2023-10-26T04:02:21.144Z,18.80
2023-10-26T04:04:24.133Z,18.15
2023-10-26T04:06:28.438Z,18.27
2023-10-26T04:08:31.370Z,19.80
2023-10-26T04:10:35.620Z,21.67
2023-10-26T04:12:38.902Z,22.90
2023-10-26T04:14:41.831Z,21.85
2023-10-26T04:16:49.159Z,19.15
2023-10-26T04:18:52.148Z,21.15
2023-10-26T04:20:55.133Z,19.13
2023-10-26T04:22:59.706Z,19.17
2023-10-26T04:25:02.687Z,21.93
2023-10-26T04:27:05.776Z,22.52
2023-10-26T04:29:09.002Z,22.75
2023-10-26T04:31:11.865Z,24.60
2023-10-26T04:33:15.208Z,23.40
2023-10-26T04:35:18.246Z,26.67
2023-10-26T04:37:21.360Z,24.30
2023-10-26T04:39:25.872Z,20.27
2023-10-26T04:41:28.835Z,28.27
2023-10-26T04:43:31.700Z,25.38
2023-10-26T04:45:34.964Z,23.67
2023-10-26T04:47:38.114Z,21.55
2023-10-26T04:49:41.786Z,22.48
2023-10-26T04:51:44.683Z,22.95
2023-10-26T04:53:47.659Z,19.58
2023-10-26T04:55:52.162Z,19.33
2023-10-26T04:57:55.235Z,22.10
2023-10-26T04:59:58.258Z,23.77
2023-10-26T05:02:01.215Z,17.65
2023-10-26T05:04:04.251Z,21.65
2023-10-26T05:06:08.179Z,21.05
2023-10-26T05:08:11.117Z,19.77
2023-10-26T05:10:14.600Z,18.55
2023-10-26T05:12:19.038Z,17.83
2023-10-26T05:14:22.031Z,17.67
2023-10-26T05:16:25.180Z,23.77
2023-10-26T05:18:28.312Z,20.50
2023-10-26T05:20:32.039Z,19.83
2023-10-26T05:22:35.191Z,19.13
2023-10-26T05:24:40.391Z,15.57
2023-10-26T05:26:43.356Z,14.82
2023-10-26T05:28:48.640Z,14.43
2023-10-26T05:30:51.694Z,20.27
2023-10-26T05:32:54.664Z,16.92
2023-10-26T05:34:57.653Z,17.70
2023-10-26T05:37:00.528Z,17.70
2023-10-26T05:39:04.820Z,12.50
2023-10-26T05:41:07.771Z,15.23
2023-10-26T05:43:11.809Z,14.35
2023-10-26T05:45:16.527Z,14.05
2023-10-26T05:47:22.018Z,15.90
2023-10-26T05:51:27.868Z,13.95
2023-10-26T05:53:30.800Z,10.63
2023-10-26T05:55:33.823Z,16.50
2023-10-26T05:57:36.828Z,14.57
2023-10-26T05:59:39.861Z,10.13
2023-10-26T06:01:44.273Z,13.18
2023-10-26T06:03:47.403Z,8.45
2023-10-26T06:05:50.372Z,11.75
2023-10-26T06:07:53.613Z,13.55
2023-10-26T06:09:56.707Z,8.15
2023-10-26T06:11:59.766Z,7.18
2023-10-26T06:14:02.675Z,10.25
2023-10-26T06:16:06.558Z,11.23
2023-10-26T06:18:14.416Z,7.80
2023-10-26T06:20:18.353Z,10.95
2023-10-26T06:22:21.280Z,15.85
2023-10-26T06:24:24.341Z,5.45
2023-10-26T06:26:27.308Z,6.03
2023-10-26T06:28:30.691Z,4.00
2023-10-26T06:30:35.595Z,7.38
2023-10-26T06:32:38.895Z,6.22
2023-10-26T06:34:43.500Z,8.05
2023-10-26T06:36:46.869Z,3.85
2023-10-26T06:38:49.837Z,5.20
2023-10-26T06:40:52.963Z,5.97
2023-10-26T06:42:56.007Z,4.45
2023-10-26T06:44:59.082Z,5.32
2023-10-26T06:47:02.214Z,8.68
2023-10-26T06:49:18.353Z,5.00
2023-10-26T06:51:31.544Z,4.63
2023-10-26T06:53:34.568Z,4.53
2023-10-26T06:55:37.473Z,4.13
2023-10-26T06:57:40.536Z,4.05
2023-10-26T06:59:43.494Z,8.30
2023-10-26T07:02:09.594Z,6.05
2023-10-26T07:04:09.376Z,4.05
2023-10-26T07:06:12.382Z,3.75
2023-10-26T07:08:17.140Z,5.53
2023-10-26T07:10:22.868Z,3.90
2023-10-26T07:12:26.028Z,4.97
2023-10-26T07:14:29.093Z,7.35
2023-10-26T07:16:32.063Z,4.03
2023-10-26T07:18:35.295Z,5.45
2023-10-26T07:20:38.636Z,7.57
2023-10-26T07:22:42.031Z,6.05
2023-10-26T07:24:46.496Z,8.98
2023-10-26T07:26:51.202Z,4.53
2023-10-26T07:28:56.424Z,7.55
2023-10-26T07:30:59.891Z,8.48
2023-10-26T07:33:03.038Z,4.72
2023-10-26T07:35:06.602Z,7.18
2023-10-26T07:37:09.605Z,4.93
2023-10-26T07:39:44.485Z,6.70
2023-10-26T07:42:06.779Z,5.55
2023-10-26T07:43:59.857Z,3.80
2023-10-26T07:46:03.312Z,5.43
2023-10-26T07:48:06.882Z,2.80
2023-10-26T07:50:10.187Z,6.15
2023-10-26T07:52:13.137Z,5.20
2023-10-26T07:54:16.399Z,7.50
2023-10-26T07:56:20.764Z,3.78
2023-10-26T07:58:25.601Z,4.97
2023-10-26T08:00:29.287Z,6.38
2023-10-26T08:02:35.290Z,6.25
2023-10-26T08:04:38.940Z,4.60
2023-10-26T08:06:41.872Z,3.83
2023-10-26T08:08:44.856Z,4.22
2023-10-26T08:10:47.867Z,3.55
2023-10-26T08:12:53.177Z,6.22
2023-10-26T08:16:10.895Z,5.75
2023-10-26T08:17:22.376Z,4.18
2023-10-26T08:19:26.175Z,2.83
2023-10-26T08:21:29.666Z,3.83
2023-10-26T08:23:34.469Z,5.70
2023-10-26T08:25:38.098Z,5.03
2023-10-26T08:27:41.095Z,4.90
2023-10-26T08:29:44.605Z,4.50
2023-10-26T08:31:49.334Z,8.18
2023-10-26T08:33:52.440Z,3.55
2023-10-26T08:35:55.375Z,4.22
2023-10-26T08:37:58.555Z,4.43
2023-10-26T08:40:01.573Z,5.07
2023-10-26T08:42:05.562Z,5.22
2023-10-26T08:44:08.726Z,6.13
2023-10-26T08:46:13.421Z,2.38
2023-10-26T08:48:19.467Z,4.65
2023-10-26T08:50:23.932Z,12.45
2023-10-26T08:52:28.560Z,12.02
2023-10-26T08:54:31.707Z,5.40
2023-10-26T08:56:34.716Z,10.55
2023-10-26T08:58:38.565Z,8.05
2023-10-26T09:00:42.490Z,5.18
2023-10-26T09:02:46.319Z,4.75
2023-10-26T09:05:04.456Z,6.22
2023-10-26T09:07:08.237Z,14.25
2023-10-26T09:09:11.577Z,7.07
2023-10-26T09:11:22.676Z,5.38
2023-10-26T09:13:27.273Z,5.15
2023-10-26T09:15:30.829Z,4.25
2023-10-26T09:17:34.386Z,4.13
2023-10-26T09:19:42.486Z,5.45
2023-10-26T09:21:58.143Z,6.80
2023-10-26T09:24:01.477Z,4.82
2023-10-26T09:26:05.939Z,6.28
2023-10-26T09:28:08.971Z,5.37
2023-10-26T09:30:27.408Z,2.45
2023-10-26T09:32:34.508Z,6.55
2023-10-26T09:34:44.059Z,11.95
2023-10-26T09:37:02.141Z,4.57
2023-10-26T09:39:08.624Z,6.13
2023-10-26T09:41:13.658Z,5.53
2023-10-26T09:43:16.627Z,7.03
2023-10-26T09:45:20.630Z,14.98
2023-10-26T09:47:26.034Z,10.57
2023-10-26T09:49:29.451Z,7.68
2023-10-26T09:51:32.527Z,15.40
2023-10-26T09:53:39.855Z,6.40
2023-10-26T09:55:44.573Z,11.07
2023-10-26T09:57:54.547Z,15.77
2023-10-26T10:00:00.671Z,17.77
2023-10-26T10:02:15.263Z,8.88
2023-10-26T10:04:35.234Z,17.90
2023-10-26T10:06:52.321Z,16.05
2023-10-26T10:09:03.530Z,13.88
2023-10-26T10:11:19.306Z,25.00
2023-10-26T10:13:37.618Z,18.30
2023-10-26T10:15:43.803Z,19.63
2023-10-26T10:18:04.458Z,11.98
2023-10-26T10:20:30.905Z,11.48
2023-10-26T10:22:55.267Z,22.42
2023-10-26T10:25:01.189Z,23.58
2023-10-26T10:27:10.958Z,31.30
2023-10-26T10:29:20.646Z,15.10
2023-10-26T10:31:42.177Z,13.52
2023-10-26T10:33:46.595Z,13.55
2023-10-26T10:36:04.639Z,27.10
2023-10-26T10:38:22.936Z,42.17
2023-10-26T10:40:27.482Z,48.22
2023-10-26T10:42:32.332Z,24.07
2023-10-26T10:44:37.817Z,20.50
2023-10-26T10:49:04.766Z,18.08
2023-10-26T10:51:07.790Z,31.08
2023-10-26T10:53:16.600Z,20.63
2023-10-26T10:55:21.826Z,24.23
2023-10-26T10:57:26.691Z,18.33
2023-10-26T10:59:31.978Z,16.73
2023-10-26T11:01:34.820Z,14.52
2023-10-26T11:03:38.362Z,7.38
2023-10-26T11:05:41.873Z,9.05
2023-10-26T11:07:44.936Z,3.80
2023-10-26T11:09:49.620Z,2.55
2023-10-26T11:11:52.779Z,10.77
2023-10-26T11:14:10.951Z,6.93
2023-10-26T11:16:17.949Z,4.88
2023-10-26T11:18:21.134Z,4.65
2023-10-26T11:20:38.692Z,10.85
2023-10-26T11:22:41.596Z,9.88
2023-10-26T11:24:45.556Z,3.75
2023-10-26T11:27:09.388Z,12.05
2023-10-26T11:29:19.775Z,33.78
2023-10-26T11:31:43.958Z,20.30
2023-10-26T11:33:47.193Z,82.75
2023-10-26T11:35:50.104Z,9.70
2023-10-26T11:37:55.246Z,10.27
2023-10-26T11:39:58.222Z,8.10
2023-10-26T11:42:01.259Z,5.20
2023-10-26T11:44:05.463Z,4.18
2023-10-26T11:46:09.982Z,4.88
2023-10-26T11:48:12.997Z,6.80
2023-10-26T11:50:26.714Z,3.53
2023-10-26T11:52:29.691Z,16.08
2023-10-26T11:54:32.825Z,14.68
2023-10-26T11:56:35.789Z,11.23
2023-10-26T11:58:39.789Z,16.25
2023-10-26T12:00:43.699Z,31.48
2023-10-26T12:02:48.632Z,11.50
2023-10-26T12:04:51.584Z,8.82
2023-10-26T12:06:54.545Z,4.20
2023-10-26T12:08:57.498Z,7.25
2023-10-26T12:11:00.537Z,4.68
2023-10-26T12:13:03.702Z,7.78
2023-10-26T12:15:07.989Z,2.72
2023-10-26T12:17:11.165Z,5.57
2023-10-26T12:19:15.638Z,11.57
2023-10-26T12:21:19.009Z,4.07
2023-10-26T12:23:22.052Z,3.90
2023-10-26T12:25:25.300Z,9.38
2023-10-26T12:27:28.480Z,15.85
2023-10-26T12:29:32.708Z,9.13
2023-10-26T12:31:35.878Z,9.15
2023-10-26T12:33:41.306Z,4.03
2023-10-26T12:35:48.332Z,3.72
2023-10-26T12:37:51.328Z,6.18
2023-10-26T12:39:54.423Z,9.02
2023-10-26T12:41:57.226Z,5.60
2023-10-26T12:44:00.279Z,8.70
2023-10-26T12:46:03.309Z,5.22
2023-10-26T12:48:06.666Z,6.97
2023-10-26T12:50:09.816Z,4.35
2023-10-26T12:52:14.336Z,6.55
2023-10-26T12:54:17.427Z,14.48
2023-10-26T12:56:21.699Z,15.80
2023-10-26T12:58:24.677Z,15.32
2023-10-26T13:00:28.474Z,5.28
2023-10-26T13:02:31.502Z,5.95
2023-10-26T13:04:35.350Z,4.97
2023-10-26T13:06:38.593Z,7.57
2023-10-26T13:08:43.129Z,5.60
2023-10-26T13:10:46.119Z,6.65
2023-10-26T13:12:49.353Z,7.72
2023-10-26T13:14:56.935Z,4.45
2023-10-26T13:17:07.373Z,4.53
2023-10-26T13:19:10.326Z,3.83
2023-10-26T13:21:13.427Z,3.47
2023-10-26T13:23:16.358Z,7.97
2023-10-26T13:25:20.796Z,3.78
2023-10-26T13:27:23.960Z,3.78
2023-10-26T13:29:27.087Z,5.18
2023-10-26T13:31:30.188Z,3.45
2023-10-26T13:33:34.291Z,4.70
2023-10-26T13:35:37.285Z,4.70
2023-10-26T13:37:40.502Z,3.00
2023-10-26T13:39:43.767Z,4.15
2023-10-26T13:41:48.406Z,2.95
2023-10-26T13:43:52.749Z,7.60
2023-10-26T13:45:55.690Z,6.07
2023-10-26T13:48:01.118Z,8.35
2023-10-26T13:52:07.233Z,4.90
2023-10-26T13:54:10.229Z,3.15
2023-10-26T13:56:13.178Z,3.63
2023-10-26T13:58:17.966Z,3.83
2023-10-26T14:00:20.917Z,4.33
2023-10-26T14:02:25.495Z,9.35
2023-10-26T14:04:28.468Z,15.73
2023-10-26T14:06:32.752Z,4.57
2023-10-26T14:08:36.219Z,4.65
2023-10-26T14:10:41.874Z,16.75
2023-10-26T14:14:48.879Z,10.40
2023-10-26T14:16:52.477Z,14.63
2023-10-26T14:18:55.692Z,7.78
2023-10-26T14:20:58.639Z,13.25
2023-10-26T14:23:03.481Z,3.97
2023-10-26T14:25:08.174Z,6.55
2023-10-26T14:27:11.311Z,4.65
2023-10-26T14:29:14.787Z,6.80
2023-10-26T14:31:19.306Z,5.18
2023-10-26T14:33:23.028Z,3.00
2023-10-26T14:35:26.022Z,5.50
2023-10-26T14:37:28.988Z,4.70
2023-10-26T14:39:31.995Z,4.05
2023-10-26T14:41:35.174Z,3.97
2023-10-26T14:43:38.206Z,3.58
2023-10-26T14:45:41.238Z,3.90
2023-10-26T14:47:45.818Z,7.50
2023-10-26T14:49:48.777Z,9.80
2023-10-26T14:51:51.763Z,7.20
2023-10-26T14:53:55.720Z,9.40
2023-10-26T14:56:01.733Z,14.60
2023-10-26T14:58:04.596Z,10.55
2023-10-26T15:00:09.269Z,11.68
2023-10-26T15:02:12.150Z,11.00
2023-10-26T15:04:17.087Z,13.20
2023-10-26T15:06:20.091Z,6.35
2023-10-26T15:08:23.080Z,10.68
2023-10-26T15:10:29.763Z,43.03
2023-10-26T15:12:35.316Z,86.35
2023-10-26T15:14:38.250Z,86.93
2023-10-26T15:16:42.183Z,82.82
2023-10-26T15:18:46.386Z,62.13
2023-10-26T15:20:50.981Z,49.85
2023-10-26T15:22:53.850Z,29.20
2023-10-26T15:24:57.033Z,22.27
2023-10-26T15:27:00.413Z,16.65
2023-10-26T15:29:03.450Z,9.57
2023-10-26T15:31:06.457Z,13.18
2023-10-26T15:33:09.428Z,15.07
2023-10-26T15:35:12.545Z,16.10
2023-10-26T15:37:17.642Z,20.35
2023-10-26T15:39:20.674Z,12.27
2023-10-26T15:41:23.696Z,12.82
2023-10-26T15:43:26.716Z,19.38
2023-10-26T15:45:29.657Z,18.13
2023-10-26T15:47:32.663Z,9.30
2023-10-26T15:49:37.958Z,17.73
2023-10-26T15:51:40.882Z,19.20
2023-10-26T15:53:45.891Z,17.27
2023-10-26T15:55:57.120Z,15.13
2023-10-26T15:58:00.199Z,19.48
2023-10-26T16:00:07.808Z,19.63
2023-10-26T16:02:10.884Z,25.08
2023-10-26T16:04:13.880Z,25.67
2023-10-26T16:06:17.510Z,22.75
2023-10-26T16:08:20.466Z,31.08
2023-10-26T16:10:24.944Z,38.47
2023-10-26T16:12:27.842Z,26.35
2023-10-26T16:14:30.775Z,26.75
2023-10-26T16:16:33.867Z,27.00
2023-10-26T16:18:37.016Z,32.33
2023-10-26T16:20:39.926Z,32.15
2023-10-26T16:22:42.964Z,42.70
2023-10-26T16:24:46.164Z,33.63
2023-10-26T16:26:50.787Z,40.47
2023-10-26T16:28:53.752Z,38.70
2023-10-26T16:31:01.245Z,33.22
2023-10-26T16:33:04.852Z,46.70
2023-10-26T16:35:11.166Z,56.05
2023-10-26T16:37:14.085Z,51.15
2023-10-26T16:39:17.096Z,66.55
2023-10-26T16:41:20.154Z,39.30
2023-10-26T16:43:24.991Z,34.97
2023-10-26T16:45:28.212Z,37.97
2023-10-26T16:47:35.354Z,32.67
2023-10-26T16:49:44.148Z,30.67
2023-10-26T16:51:47.187Z,35.05
2023-10-26T16:53:50.172Z,63.05
2023-10-26T16:55:59.888Z,53.13
2023-10-26T16:58:02.763Z,53.25
2023-10-26T17:00:11.368Z,179.25
2023-10-26T17:02:14.423Z,62.45
2023-10-26T17:04:17.313Z,52.90
2023-10-26T17:06:20.253Z,29.08
2023-10-26T17:08:23.217Z,23.13
2023-10-26T17:10:26.185Z,30.67
2023-10-26T17:12:29.262Z,36.28
2023-10-26T17:14:32.071Z,30.35
2023-10-26T17:16:36.705Z,39.42
2023-10-26T17:18:39.779Z,54.00
2023-10-26T17:20:42.664Z,63.20
2023-10-26T17:22:45.590Z,76.70
2023-10-26T17:24:49.753Z,76.90
2023-10-26T17:26:52.618Z,40.13
2023-10-26T17:28:57.935Z,42.53
2023-10-26T17:31:07.202Z,60.88
2023-10-26T17:33:14.437Z,51.08
2023-10-26T17:35:17.931Z,40.90
2023-10-26T17:37:21.281Z,40.00
2023-10-26T17:39:25.732Z,39.63
2023-10-26T17:41:28.788Z,58.00
2023-10-26T17:43:31.630Z,44.72
2023-10-26T17:45:34.861Z,37.55
2023-10-26T17:47:37.884Z,44.15
2023-10-26T17:49:42.500Z,45.67
2023-10-26T17:51:45.550Z,49.17
2023-10-26T17:53:49.513Z,52.22
2023-10-26T17:55:58.743Z,55.40
2023-10-26T17:58:01.735Z,60.78
2023-10-26T18:00:05.811Z,43.50
2023-10-26T18:02:14.668Z,45.03
2023-10-26T18:04:17.610Z,46.45
2023-10-26T18:06:23.750Z,48.85
2023-10-26T18:08:26.589Z,39.63
2023-10-26T18:10:30.438Z,29.23
2023-10-26T18:12:33.430Z,25.83
2023-10-26T18:14:36.360Z,29.38
2023-10-26T18:16:39.487Z,23.67
2023-10-26T18:18:44.218Z,21.95
2023-10-26T18:20:55.537Z,27.10
2023-10-26T18:23:01.730Z,17.13
2023-10-26T18:25:05.331Z,21.10
2023-10-26T18:27:08.443Z,19.10
2023-10-26T18:29:11.307Z,15.15
2023-10-26T18:31:18.744Z,20.90
2023-10-26T18:33:21.650Z,13.75
2023-10-26T18:35:25.677Z,10.02
2023-10-26T18:37:28.713Z,12.40
2023-10-26T18:39:33.126Z,14.95
2023-10-26T18:41:36.047Z,16.10
2023-10-26T18:43:39.094Z,16.67
2023-10-26T18:45:42.202Z,20.60
2023-10-26T18:47:46.641Z,33.65
2023-10-26T18:49:51.053Z,45.17
2023-10-26T18:51:54.010Z,39.40
2023-10-26T18:53:57.175Z,32.80
2023-10-26T18:56:01.555Z,26.23
2023-10-26T18:58:04.595Z,15.48
2023-10-26T19:00:09.523Z,14.73
2023-10-26T19:02:12.682Z,12.65
2023-10-26T19:04:17.818Z,15.13
2023-10-26T19:06:20.782Z,11.07
2023-10-26T19:08:24.511Z,12.35
2023-10-26T19:10:27.584Z,11.80
2023-10-26T19:12:32.083Z,17.38
2023-10-26T19:14:35.058Z,13.93
2023-10-26T19:16:38.045Z,14.48
2023-10-26T19:18:41.107Z,14.60
2023-10-26T19:20:44.353Z,12.00
2023-10-26T19:22:49.332Z,15.50
2023-10-26T19:24:52.276Z,17.67
2023-10-26T19:26:55.312Z,18.17
2023-10-26T19:28:59.786Z,26.00
2023-10-26T19:31:02.756Z,16.10
2023-10-26T19:33:06.399Z,18.15
2023-10-26T19:35:09.484Z,20.42
2023-10-26T19:37:12.462Z,20.58
2023-10-26T19:39:15.383Z,26.15
2023-10-26T19:41:18.404Z,14.10
2023-10-26T19:43:21.384Z,30.02
2023-10-26T19:45:26.012Z,24.38
2023-10-26T19:47:29.006Z,42.25
2023-10-26T19:49:31.979Z,33.00
2023-10-26T19:51:34.870Z,54.08
2023-10-26T19:53:37.899Z,86.18
2023-10-26T19:55:41.135Z,94.68
2023-10-26T19:57:44.258Z,104.97
2023-10-26T19:59:47.663Z,110.95
2023-10-26T20:01:53.236Z,138.38
2023-10-26T20:03:56.270Z,87.97
2023-10-26T20:05:59.300Z,66.00
2023-10-26T20:08:02.187Z,47.58
2023-10-26T20:10:06.878Z,24.75
2023-10-26T20:12:10.378Z,25.77
2023-10-26T20:14:13.461Z,24.98
2023-10-26T20:16:16.772Z,15.18
2023-10-26T20:18:21.344Z,16.83
2023-10-26T20:20:29.787Z,20.05
2023-10-26T20:22:32.984Z,12.48
2023-10-26T20:24:36.148Z,13.57
2023-10-26T20:26:40.485Z,15.65
2023-10-26T20:28:43.786Z,14.10
2023-10-26T20:30:46.976Z,13.10
2023-10-26T20:32:50.418Z,18.63
2023-10-26T20:34:54.989Z,13.05
2023-10-26T20:36:58.922Z,21.38
2023-10-26T20:39:02.101Z,14.57
2023-10-26T20:41:07.171Z,17.33
2023-10-26T20:43:10.336Z,22.08
2023-10-26T20:45:13.442Z,11.80
2023-10-26T20:47:16.361Z,14.93
2023-10-26T20:49:19.438Z,12.35
2023-10-26T20:51:24.083Z,13.07
2023-10-26T20:53:29.239Z,18.50
2023-10-26T20:55:32.390Z,17.52
2023-10-26T20:57:35.360Z,15.38
2023-10-26T20:59:40.429Z,19.75
2023-10-26T21:01:45.129Z,27.02
2023-10-26T21:03:48.249Z,29.73
2023-10-26T21:05:51.861Z,17.25
2023-10-26T21:07:57.073Z,18.05
2023-10-26T21:10:00.144Z,20.33
2023-10-26T21:12:08.345Z,22.23
2023-10-26T21:14:13.033Z,21.92
2023-10-26T21:16:16.223Z,17.98
2023-10-26T21:18:19.169Z,18.98
2023-10-26T21:20:24.300Z,17.60
2023-10-26T21:22:27.256Z,25.98
2023-10-26T21:24:32.092Z,27.90
2023-10-26T21:26:34.961Z,25.23
2023-10-26T21:28:40.199Z,23.33
2023-10-26T21:30:43.134Z,21.40
2023-10-26T21:32:46.138Z,19.65
2023-10-26T21:34:49.122Z,26.80
2023-10-26T21:36:52.137Z,23.30
2023-10-26T21:38:55.052Z,26.27
2023-10-26T21:41:05.398Z,24.70
2023-10-26T21:43:08.380Z,20.67
2023-10-26T21:45:11.868Z,20.77
2023-10-26T21:47:14.895Z,26.52
2023-10-26T21:49:17.896Z,21.25
2023-10-26T21:51:20.780Z,19.42
2023-10-26T21:53:23.760Z,22.77
2023-10-26T21:55:26.656Z,15.40
2023-10-26T21:57:31.129Z,21.00
2023-10-26T21:59:34.199Z,23.63
2023-10-26T22:01:37.205Z,17.38
2023-10-26T22:03:40.573Z,22.80
2023-10-26T22:05:44.681Z,23.05
2023-10-26T22:07:47.639Z,24.85
2023-10-26T22:09:55.480Z,18.52
2023-10-26T22:11:58.758Z,18.92
2023-10-26T22:14:03.317Z,19.02
2023-10-26T22:16:06.808Z,24.30
2023-10-26T22:18:10.175Z,19.58
2023-10-26T22:20:13.279Z,22.38
2023-10-26T22:22:16.260Z,18.75
2023-10-26T22:24:19.321Z,18.00
2023-10-26T22:26:22.414Z,20.98
2023-10-26T22:28:25.283Z,20.98
2023-10-26T22:30:29.842Z,22.65
2023-10-26T22:32:32.754Z,19.80
2023-10-26T22:34:36.012Z,22.83
2023-10-26T22:36:39.390Z,19.40
2023-10-26T22:38:42.332Z,28.83
2023-10-26T22:40:45.451Z,20.67
2023-10-26T22:42:48.662Z,28.38
2023-10-26T22:44:51.824Z,22.95
2023-10-26T22:46:56.347Z,25.73
2023-10-26T22:48:59.540Z,20.52
2023-10-26T22:51:02.678Z,21.83
2023-10-26T22:53:05.652Z,19.15
2023-10-26T22:55:09.712Z,22.80
2023-10-26T22:57:12.676Z,20.55
2023-10-26T22:59:15.652Z,25.65
2023-10-26T23:01:23.299Z,19.35
2023-10-26T23:03:28.558Z,26.50
2023-10-26T23:05:31.422Z,22.48
2023-10-26T23:07:34.472Z,18.75
2023-10-26T23:09:37.704Z,24.00
2023-10-26T23:11:40.781Z,23.00
2023-10-26T23:13:43.735Z,22.45
2023-10-26T23:15:46.776Z,19.70
2023-10-26T23:17:49.753Z,31.08
2023-10-26T23:19:54.480Z,32.25
2023-10-26T23:21:57.490Z,29.20
2023-10-26T23:24:02.247Z,28.60
2023-10-26T23:26:08.168Z,27.47
2023-10-26T23:28:11.959Z,25.90
2023-10-26T23:30:15.456Z,30.33
2023-10-26T23:32:18.358Z,33.67
2023-10-26T23:34:21.357Z,30.65
2023-10-26T23:36:25.964Z,22.33
2023-10-26T23:38:28.780Z,27.52
2023-10-26T23:40:32.670Z,26.50
2023-10-26T23:42:35.610Z,21.77
2023-10-26T23:44:38.660Z,23.88
2023-10-26T23:46:41.484Z,28.67
2023-10-26T23:48:44.615Z,27.30
2023-10-26T23:50:47.515Z,21.80
2023-10-26T23:52:51.869Z,19.90
2023-10-26T23:54:54.910Z,26.40
2023-10-26T23:56:57.955Z,27.73
2023-10-26T23:59:03.593Z,34.58
